Time;durP1;ratioP1;P1;durP2;ratioP2;P2;SDS_P1;SDS_P2;PMS_P1;PMS_P2;Temp;Humidity;BMP_temperature;BMP_pressure;BME280_temperature;BME280_humidity;BME280_pressure;Samples;Min_cycle;Max_cycle;Signal;HPM_P1;HPM_P2
2020/12/11 00:02:22;;;;;;;2.27;2.07;;;19.00;23.70;;;;;;5076746;28;20459;-53
2020/12/11 00:04:54;;;;;;;2.67;2.47;;;19.00;23.70;;;;;;5095006;28;20394;-53
2020/12/11 00:07:20;;;;;;;2.75;2.55;;;18.90;23.70;;;;;;5094286;28;20412;-53
2020/12/11 00:09:52;;;;;;;4.97;1.83;;;18.90;23.70;;;;;;5094904;28;20209;-53
2020/12/11 00:12:17;;;;;;;2.40;2.20;;;18.90;23.70;;;;;;5076739;28;20451;-52
2020/12/11 00:14:43;;;;;;;2.07;1.87;;;18.90;23.70;;;;;;5094780;28;20608;-52
2020/12/11 00:17:09;;;;;;;3.30;2.23;;;18.90;23.70;;;;;;5076480;28;20177;-52
2020/12/11 00:19:34;;;;;;;2.40;2.20;;;18.90;23.70;;;;;;5094774;28;20158;-52
2020/12/11 00:22:00;;;;;;;2.40;2.20;;;18.90;23.70;;;;;;5093934;28;20162;-53
2020/12/11 00:24:25;;;;;;;2.20;2.10;;;18.90;23.70;;;;;;5076564;28;20592;-52
2020/12/11 00:26:51;;;;;;;2.30;2.10;;;18.90;23.70;;;;;;5094433;28;20154;-52
2020/12/11 00:29:17;;;;;;;2.10;1.90;;;18.90;23.70;;;;;;5093837;28;20273;-53
2020/12/11 00:31:43;;;;;;;2.43;2.20;;;18.90;23.80;;;;;;5075909;28;20253;-53
2020/12/11 00:34:09;;;;;;;1.87;1.77;;;18.90;23.70;;;;;;5094517;28;20411;-52
2020/12/11 00:36:34;;;;;;;2.30;2.10;;;18.90;23.70;;;;;;5075832;28;20168;-53
2020/12/11 00:39:00;;;;;;;4.53;1.60;;;18.90;23.70;;;;;;5094386;28;20142;-52
2020/12/11 00:41:26;;;;;;;2.10;1.90;;;18.90;23.70;;;;;;5094488;28;20166;-52
2020/12/11 00:43:51;;;;;;;2.43;1.90;;;18.90;23.80;;;;;;5094205;28;20553;-52
2020/12/11 00:46:24;;;;;;;2.60;2.40;;;18.90;23.70;;;;;;5093557;28;20637;-52
2020/12/11 00:48:51;;;;;;;2.53;2.33;;;18.90;23.80;;;;;;5094348;28;20154;-52
2020/12/11 00:51:21;;;;;;;2.45;2.17;;;18.90;23.70;;;;;;5093444;28;20150;-52
2020/12/11 00:53:47;;;;;;;2.55;2.35;;;18.90;24.30;;;;;;5094245;28;20237;-52
2020/12/11 00:56:13;;;;;;;1.98;1.85;;;18.90;23.80;;;;;;5094100;28;20177;-52
2020/12/11 00:58:39;;;;;;;3.65;2.00;;;18.90;23.80;;;;;;5072498;28;20185;-52
2020/12/11 01:01:05;;;;;;;2.10;2.00;;;18.90;23.80;;;;;;5094108;28;20537;-52
2020/12/11 01:03:31;;;;;;;1.73;1.63;;;18.90;23.80;;;;;;5093797;28;20196;-52
2020/12/11 01:05:56;;;;;;;2.33;2.13;;;18.90;23.80;;;;;;5065254;28;20535;-52
2020/12/11 01:08:22;;;;;;;1.73;1.63;;;18.90;23.80;;;;;;5073090;28;20678;-52
2020/12/11 01:10:48;;;;;;;2.37;2.17;;;18.90;23.80;;;;;;5073633;28;20176;-52
2020/12/11 01:13:13;;;;;;;1.73;1.50;;;18.90;23.80;;;;;;5073896;28;20177;-52
2020/12/11 01:15:39;;;;;;;2.40;2.20;;;18.90;23.80;;;;;;5073649;28;20491;-52
2020/12/11 01:18:05;;;;;;;2.70;2.50;;;18.90;23.80;;;;;;5073443;28;20451;-52
2020/12/11 01:20:30;;;;;;;2.10;1.90;;;18.90;23.80;;;;;;5072975;28;20158;-52
2020/12/11 01:22:56;;;;;;;2.03;1.90;;;18.90;23.80;;;;;;5073518;28;20671;-52
2020/12/11 01:25:21;;;;;;;2.20;2.00;;;18.80;23.70;;;;;;5055529;28;20165;-52
2020/12/11 01:27:47;;;;;;;2.40;2.00;;;18.90;23.80;;;;;;5055756;28;20174;-52
2020/12/11 01:30:13;;;;;;;2.17;2.00;;;18.90;23.80;;;;;;5073345;28;20164;-52
2020/12/11 01:32:38;;;;;;;2.97;2.70;;;18.90;23.80;;;;;;5073590;28;20177;-52
2020/12/11 01:35:04;;;;;;;2.43;2.23;;;18.90;23.80;;;;;;5073379;28;20200;-52
2020/12/11 01:37:30;;;;;;;2.50;2.30;;;18.80;23.80;;;;;;5072962;28;20166;-52
2020/12/11 01:39:55;;;;;;;1.70;1.60;;;18.80;23.80;;;;;;5073329;28;20182;-52
2020/12/11 01:42:21;;;;;;;2.37;2.17;;;18.90;23.90;;;;;;5073229;28;20197;-53
2020/12/11 01:44:48;;;;;;;2.20;2.10;;;18.80;23.80;;;;;;5073436;28;20654;-52
2020/12/11 01:47:14;;;;;;;2.38;2.17;;;18.80;23.80;;;;;;5055333;28;20224;-52
2020/12/11 01:49:40;;;;;;;2.25;2.05;;;18.80;23.80;;;;;;5073130;28;20208;-52
2020/12/11 01:52:07;;;;;;;2.73;2.30;;;18.80;23.80;;;;;;5072809;28;20155;-52
2020/12/11 01:54:33;;;;;;;2.45;2.25;;;18.80;23.80;;;;;;5073306;28;20154;-52
2020/12/11 01:57:06;;;;;;;1.90;1.70;;;18.80;23.80;;;;;;5073147;28;20155;-52
2020/12/11 01:59:42;;;;;;;2.10;1.85;;;18.80;23.80;;;;;;5096269;28;20248;-53
2020/12/11 02:02:13;;;;;;;2.38;2.10;;;18.80;23.80;;;;;;5096794;28;20166;-52
2020/12/11 02:04:39;;;;;;;2.33;2.17;;;18.80;23.80;;;;;;5097414;28;20227;-53
2020/12/11 02:07:06;;;;;;;2.25;2.05;;;18.80;23.80;;;;;;5096723;28;20154;-53
2020/12/11 02:09:33;;;;;;;1.67;1.58;;;18.80;23.80;;;;;;5097004;28;20216;-52
2020/12/11 02:12:00;;;;;;;2.08;1.98;;;18.80;23.90;;;;;;5078734;28;20166;-52
2020/12/11 02:14:26;;;;;;;2.42;2.22;;;18.80;23.90;;;;;;5097127;28;20157;-52
2020/12/11 02:16:59;;;;;;;1.93;1.83;;;18.80;23.90;;;;;;5096859;28;20162;-52
2020/12/11 02:19:29;;;;;;;1.80;1.70;;;18.80;23.90;;;;;;5097092;28;20435;-52
2020/12/11 02:21:57;;;;;;;1.75;1.65;;;18.80;23.90;;;;;;5078581;28;20586;-52
2020/12/11 02:24:23;;;;;;;2.15;2.00;;;18.80;23.90;;;;;;5096883;28;20280;-52
2020/12/11 02:26:53;;;;;;;2.03;1.93;;;18.80;23.90;;;;;;5096928;28;20241;-52
2020/12/11 02:29:18;;;;;;;2.38;1.90;;;18.80;23.90;;;;;;5096922;28;20195;-53
2020/12/11 02:31:44;;;;;;;2.30;2.10;;;18.80;23.90;;;;;;5078180;28;20166;-53
2020/12/11 02:34:10;;;;;;;1.97;1.63;;;18.80;23.90;;;;;;5078863;28;20197;-52
2020/12/11 02:36:35;;;;;;;2.17;2.07;;;18.80;23.90;;;;;;5096031;28;20238;-52
2020/12/11 02:39:01;;;;;;;1.93;1.73;;;18.70;23.90;;;;;;5096806;28;20161;-53
2020/12/11 02:41:26;;;;;;;2.67;2.47;;;18.80;24.00;;;;;;5096411;28;20632;-53
2020/12/11 02:43:52;;;;;;;1.80;1.70;;;18.70;23.90;;;;;;5096616;28;20193;-52
2020/12/11 02:46:18;;;;;;;1.63;1.53;;;18.70;23.90;;;;;;5096043;28;20613;-52
2020/12/11 02:48:43;;;;;;;2.10;2.00;;;18.70;23.90;;;;;;5078606;28;20224;-53
2020/12/11 02:51:10;;;;;;;1.80;1.70;;;18.70;23.90;;;;;;5095860;28;20233;-52
2020/12/11 02:53:36;;;;;;;2.22;2.03;;;18.70;23.90;;;;;;5096175;28;20158;-52
2020/12/11 02:56:02;;;;;;;1.63;1.53;;;18.70;23.90;;;;;;5078183;28;20648;-51
2020/12/11 02:58:28;;;;;;;2.27;2.07;;;18.70;23.90;;;;;;5096087;28;20212;-52
2020/12/11 03:00:53;;;;;;;2.50;2.30;;;18.70;23.90;;;;;;5078214;28;20158;-53
2020/12/11 03:03:19;;;;;;;2.17;2.00;;;;;;;;;;5096031;28;20189;-52
2020/12/11 03:05:45;;;;;;;2.45;2.25;;;18.70;23.50;;;;;;5095664;28;20165;-52
2020/12/11 03:08:11;;;;;;;1.70;1.60;;;18.70;24.00;;;;;;5095982;28;20217;-52
2020/12/11 03:10:36;;;;;;;1.90;1.80;;;18.70;24.00;;;;;;5077162;28;20150;-52
2020/12/11 03:13:02;;;;;;;2.53;2.33;;;18.70;24.00;;;;;;5095889;28;20635;-52
2020/12/11 03:15:28;;;;;;;1.70;1.60;;;18.70;24.00;;;;;;5095732;28;20162;-52
2020/12/11 03:17:53;;;;;;;2.33;2.13;;;18.70;24.00;;;;;;5096009;28;20241;-52
2020/12/11 03:20:25;;;;;;;2.33;2.13;;;18.70;24.00;;;;;;5077163;28;20189;-52
2020/12/11 03:22:52;;;;;;;1.60;1.50;;;18.70;24.00;;;;;;5095967;28;20220;-52
2020/12/11 03:25:18;;;;;;;2.10;1.90;;;18.60;24.00;;;;;;5095705;28;20165;-52
2020/12/11 03:27:44;;;;;;;2.17;1.65;;;18.70;24.00;;;;;;5077653;28;20235;-53
2020/12/11 03:30:13;;;;;;;2.27;2.00;;;18.70;24.00;;;;;;5095910;28;20613;-53
2020/12/11 03:32:38;;;;;;;1.83;1.67;;;18.70;24.00;;;;;;5095348;28;20158;-53
2020/12/11 03:35:05;;;;;;;1.87;1.77;;;18.70;24.10;;;;;;5077494;28;20185;-53
2020/12/11 03:37:31;;;;;;;1.95;1.70;;;18.70;24.10;;;;;;5095129;28;20165;-53
2020/12/11 03:39:57;;;;;;;2.80;2.10;;;18.60;24.00;;;;;;5095365;28;20509;-53
2020/12/11 03:42:22;;;;;;;2.50;1.83;;;18.60;24.00;;;;;;5095297;28;20642;-53
2020/12/11 03:44:51;;;;;;;1.63;1.53;;;18.70;24.10;;;;;;5077043;28;20782;-53
2020/12/11 03:47:20;;;;;;;1.85;1.60;;;18.60;24.60;;;;;;5095546;28;20157;-53
2020/12/11 03:49:49;;;;;;;1.92;1.83;;;18.60;24.00;;;;;;5077085;28;20150;-53
2020/12/11 03:52:14;;;;;;;1.95;1.60;;;18.60;24.00;;;;;;5094676;28;20150;-53
2020/12/11 03:54:40;;;;;;;2.20;2.00;;;18.60;24.00;;;;;;5095388;28;20172;-52
2020/12/11 03:57:06;;;;;;;1.63;1.53;;;18.60;24.00;;;;;;5094998;28;20228;-53
2020/12/11 03:59:31;;;;;;;2.00;1.80;;;18.60;24.00;;;;;;5094830;28;20430;-52
2020/12/11 04:01:57;;;;;;;2.20;2.07;;;18.60;24.00;;;;;;5095076;28;20197;-53
2020/12/11 04:04:23;;;;;;;2.30;2.10;;;18.60;24.00;;;;;;5095098;28;20669;-52
2020/12/11 04:06:51;;;;;;;2.40;2.20;;;18.60;24.00;;;;;;5094486;28;20609;-53
2020/12/11 04:09:17;;;;;;;2.35;2.15;;;18.60;24.00;;;;;;5073518;28;20237;-53
2020/12/11 04:11:43;;;;;;;2.00;1.90;;;18.60;24.00;;;;;;5074620;28;20198;-53
2020/12/11 04:14:08;;;;;;;2.00;1.90;;;18.60;24.10;;;;;;5073346;28;20564;-53
2020/12/11 04:16:34;;;;;;;2.80;2.23;;;18.60;24.00;;;;;;5074746;28;20198;-53
2020/12/11 04:19:00;;;;;;;1.90;1.60;;;18.60;24.10;;;;;;5074625;28;20177;-53
2020/12/11 04:21:26;;;;;;;1.60;1.50;;;18.60;24.00;;;;;;5073920;28;20163;-53
2020/12/11 04:23:52;;;;;;;2.30;2.10;;;18.60;24.10;;;;;;5074554;28;20315;-53
2020/12/11 04:26:17;;;;;;;2.40;2.20;;;18.60;24.10;;;;;;5074150;28;20613;-53
2020/12/11 04:28:43;;;;;;;2.73;2.13;;;18.60;24.10;;;;;;5074322;28;20606;-53
2020/12/11 04:31:09;;;;;;;1.93;1.83;;;18.60;24.10;;;;;;5074172;28;20155;-53
2020/12/11 04:33:35;;;;;;;1.98;1.88;;;18.60;24.10;;;;;;5072739;28;20316;-53
2020/12/11 04:36:00;;;;;;;1.80;1.70;;;18.60;24.10;;;;;;5073703;28;20159;-53
2020/12/11 04:38:26;;;;;;;2.50;2.30;;;18.60;24.10;;;;;;5074531;28;20191;-53
2020/12/11 04:41:00;;;;;;;1.73;1.60;;;18.60;24.10;;;;;;5073828;28;20636;-53
2020/12/11 04:43:27;;;;;;;2.15;1.90;;;18.60;24.10;;;;;;5074082;28;20186;-53
2020/12/11 04:45:53;;;;;;;1.92;1.83;;;18.60;24.10;;;;;;5073938;28;20147;-53
2020/12/11 04:48:22;;;;;;;1.60;1.50;;;18.60;24.10;;;;;;5074003;28;20237;-52
2020/12/11 04:50:48;;;;;;;1.73;1.63;;;18.60;24.10;;;;;;5073470;28;20242;-53
2020/12/11 04:53:18;;;;;;;1.85;1.75;;;18.50;24.10;;;;;;5074010;28;20162;-53
2020/12/11 04:55:44;;;;;;;2.08;1.98;;;18.50;24.00;;;;;;5072740;28;20609;-52
2020/12/11 04:58:14;;;;;;;1.90;1.80;;;18.50;24.60;;;;;;5072414;28;20261;-52
2020/12/11 05:00:40;;;;;;;1.30;1.20;;;18.60;24.20;;;;;;5073724;28;20420;-52
2020/12/11 05:03:09;;;;;;;2.08;1.67;;;18.50;24.10;;;;;;5072568;28;20284;-52
2020/12/11 05:05:35;;;;;;;1.65;1.55;;;18.50;24.10;;;;;;5072001;28;20158;-52
2020/12/11 05:08:15;;;;;;;2.43;1.83;;;18.60;24.20;;;;;;5077510;28;20240;-52
2020/12/11 05:10:41;;;;;;;1.25;1.15;;;18.50;24.10;;;;;;5093728;28;20604;-52
2020/12/11 05:13:17;;;;;;;1.83;1.73;;;18.50;24.10;;;;;;5093700;28;20172;-53
2020/12/11 05:15:43;;;;;;;2.08;1.88;;;18.50;24.10;;;;;;5075404;28;20177;-53
2020/12/11 05:18:17;;;;;;;1.93;1.50;;;18.50;24.10;;;;;;5093808;28;20158;-53
2020/12/11 05:20:43;;;;;;;1.92;1.60;;;18.50;24.20;;;;;;5093233;28;20153;-53
2020/12/11 05:23:08;;;;;;;1.87;1.63;;;18.50;24.10;;;;;;5093731;28;20189;-53
2020/12/11 05:25:34;;;;;;;1.60;1.50;;;18.50;24.10;;;;;;5093324;28;20154;-53
2020/12/11 05:28:00;;;;;;;1.83;1.73;;;18.50;24.20;;;;;;5093713;28;20531;-53
2020/12/11 05:30:26;;;;;;;1.70;1.60;;;18.50;24.20;;;;;;5093529;28;20156;-52
2020/12/11 05:32:55;;;;;;;1.70;1.60;;;18.50;24.20;;;;;;5095081;28;20170;-52
2020/12/11 05:35:25;;;;;;;1.70;1.60;;;18.50;24.20;;;;;;5078910;28;20207;-53
2020/12/11 05:37:56;;;;;;;1.90;1.80;;;18.50;24.20;;;;;;5097876;28;20156;-53
2020/12/11 05:40:40;;;;;;;1.55;1.45;;;18.50;24.20;;;;;;5097464;28;20173;-53
2020/12/11 05:43:21;;;;;;;1.80;1.70;;;18.50;24.20;;;;;;5079484;28;20308;-53
2020/12/11 05:45:52;;;;;;;1.73;1.63;;;18.50;24.20;;;;;;5097378;28;20161;-53
2020/12/11 05:48:23;;;;;;;1.80;1.70;;;18.50;24.20;;;;;;5097699;28;20168;-53
2020/12/11 05:50:49;;;;;;;1.80;1.70;;;18.50;24.20;;;;;;5097052;28;20158;-52
2020/12/11 05:53:15;;;;;;;2.03;1.90;;;18.50;24.20;;;;;;5097566;28;20227;-53
2020/12/11 05:55:41;;;;;;;1.90;1.70;;;18.50;24.20;;;;;;5097437;28;20412;-53
2020/12/11 05:58:09;;;;;;;2.07;1.87;;;18.50;24.20;;;;;;5097239;28;20207;-53
2020/12/11 06:00:35;;;;;;;1.90;1.80;;;18.50;24.20;;;;;;5097256;28;20487;-53
2020/12/11 06:03:01;;;;;;;1.43;1.33;;;18.50;24.20;;;;;;5097314;28;20276;-53
2020/12/11 06:05:27;;;;;;;1.80;1.60;;;18.50;24.20;;;;;;5096579;28;20392;-53
2020/12/11 06:07:53;;;;;;;1.93;1.83;;;18.50;24.20;;;;;;5097117;28;20263;-54
2020/12/11 06:10:20;;;;;;;1.70;1.60;;;18.50;24.20;;;;;;5096865;28;20185;-52
2020/12/11 06:12:47;;;;;;;1.80;1.70;;;18.50;24.20;;;;;;5097137;28;20949;-52
2020/12/11 06:15:21;;;;;;;1.60;1.50;;;18.50;24.20;;;;;;5097015;28;20170;-52
2020/12/11 06:18:10;;;;;;;1.80;1.70;;;18.50;24.20;;;;;;5096946;28;20161;-52
2020/12/11 06:20:37;;;;;;;1.60;1.50;;;18.50;24.20;;;;;;5096140;28;20223;-52
2020/12/11 06:23:22;;;;;;;1.77;1.67;;;18.50;24.20;;;;;;5096777;28;20190;-53
2020/12/11 06:25:59;;;;;;;2.08;1.75;;;18.50;24.20;;;;;;5096458;28;20195;-53
2020/12/11 06:28:39;;;;;;;1.67;1.58;;;18.50;24.10;;;;;;5078066;28;20173;-52
2020/12/11 06:31:07;;;;;;;1.75;1.65;;;18.50;24.10;;;;;;5096412;28;20505;-52
2020/12/11 06:33:35;;;;;;;1.90;1.80;;;18.50;24.10;;;;;;5096860;28;20200;-52
2020/12/11 06:36:02;;;;;;;1.38;1.27;;;18.50;24.10;;;;;;5096460;28;20509;-52
2020/12/11 06:38:45;;;;;;;1.90;1.80;;;18.50;24.20;;;;;;5096365;28;20664;-52
2020/12/11 06:41:12;;;;;;;2.17;1.98;;;18.50;24.20;;;;;;5096302;28;20172;-52
2020/12/11 06:43:42;;;;;;;1.50;1.40;;;18.50;24.20;;;;;;5095568;28;20194;-52
2020/12/11 06:46:15;;;;;;;1.65;1.55;;;18.50;24.20;;;;;;5095885;28;20150;-53
2020/12/11 06:49:09;;;;;;;1.58;1.48;;;18.50;24.20;;;;;;5096454;28;20196;-52
2020/12/11 06:51:56;;;;;;;1.55;1.45;;;18.50;24.20;;;;;;5095610;28;20161;-53
2020/12/11 06:54:21;;;;;;;1.58;1.48;;;18.50;24.20;;;;;;5078953;28;20265;-52
2020/12/11 06:56:47;;;;;;;2.10;2.00;;;18.50;24.20;;;;;;5078127;28;20248;-52
2020/12/11 06:59:20;;;;;;;1.60;1.50;;;18.50;24.20;;;;;;5096186;28;20602;-53
2020/12/11 07:01:56;;;;;;;2.15;1.95;;;18.50;24.20;;;;;;5077673;28;20686;-52
2020/12/11 07:04:22;;;;;;;1.70;1.60;;;18.50;24.20;;;;;;5077842;28;20272;-53
2020/12/11 07:06:53;;;;;;;2.00;1.90;;;18.50;24.20;;;;;;5095265;28;20158;-53
2020/12/11 07:09:19;;;;;;;1.60;1.50;;;18.50;24.20;;;;;;5095779;28;20684;-52
2020/12/11 07:11:47;;;;;;;2.15;1.85;;;18.50;24.20;;;;;;5095717;28;20616;-52
2020/12/11 07:14:13;;;;;;;2.28;2.00;;;19.00;24.60;;;;;;5095734;28;20158;-51
2020/12/11 07:16:41;;;;;;;1.30;1.20;;;18.50;24.20;;;;;;5095353;28;20658;-52
2020/12/11 07:19:07;;;;;;;9.18;7.18;;;18.50;24.20;;;;;;5090131;28;20208;-53
2020/12/11 07:21:34;;;;;;;7.30;6.70;;;18.30;20.40;;;;;;5078973;28;20217;-55
2020/12/11 07:24:01;;;;;;;5.65;5.25;;;17.50;18.60;;;;;;5091909;28;20280;-55
2020/12/11 07:26:27;;;;;;;4.70;4.30;;;17.30;22.30;;;;;;5094308;28;20231;-55
2020/12/11 07:29:05;;;;;;;5.93;5.45;;;;;;;;;;5076817;28;20154;-57
2020/12/11 07:31:44;;;;;;;8.32;7.63;;;17.20;22.70;;;;;;5093119;28;20184;-57
2020/12/11 07:34:22;;;;;;;6.97;6.40;;;17.20;22.40;;;;;;5069974;28;20173;-57
2020/12/11 07:36:55;;;;;;;8.15;7.53;;;17.20;22.30;;;;;;5074320;28;20387;-56
2020/12/11 07:39:26;;;;;;;9.60;8.73;;;17.20;21.60;;;;;;5074069;28;20484;-56
2020/12/11 07:41:55;;;;;;;8.00;7.40;;;17.20;20.70;;;;;;5056221;28;20170;-56
2020/12/11 07:44:29;;;;;;;8.57;7.88;;;17.20;20.40;;;;;;5074412;28;20190;-55
2020/12/11 07:46:57;;;;;;;8.38;7.72;;;17.20;20.00;;;;;;5074230;28;20174;-55
2020/12/11 07:49:44;;;;;;;8.55;7.85;;;17.20;19.70;;;;;;5073335;28;20154;-55
2020/12/11 07:52:12;;;;;;;8.10;7.50;;;17.20;19.10;;;;;;5057174;28;20189;-55
2020/12/11 07:54:43;;;;;;;9.27;8.50;;;17.20;19.00;;;;;;5077133;28;21392;-55
2020/12/11 07:57:19;;;;;;;8.43;7.63;;;17.30;18.80;;;;;;5058932;28;20490;-59
2020/12/11 07:59:59;;;;;;;7.50;6.80;;;17.40;18.50;;;;;;5027492;28;20180;-58
2020/12/11 08:02:26;;;;;;;8.13;7.32;;;17.50;18.50;;;;;;5053522;28;20185;-56
2020/12/11 08:04:52;;;;;;;6.18;5.68;;;17.60;18.60;;;;;;5064554;28;20170;-57
2020/12/11 08:07:24;;;;;;;5.70;5.30;;;17.70;18.70;;;;;;5059688;28;20303;-57
2020/12/11 08:09:50;;;;;;;6.28;5.68;;;17.80;18.70;;;;;;5032723;28;20679;-57
2020/12/11 08:12:16;;;;;;;5.43;4.95;;;17.80;18.70;;;;;;5060939;28;20193;-56
2020/12/11 08:14:42;;;;;;;5.50;5.10;;;18.00;19.60;;;;;;5059753;28;20273;-56
2020/12/11 08:17:10;;;;;;;4.63;4.22;;;18.00;19.30;;;;;;5043297;28;20648;-56
2020/12/11 08:19:36;;;;;;;4.20;3.90;;;18.10;19.20;;;;;;5049480;28;20166;-56
2020/12/11 08:22:14;;;;;;;4.63;4.23;;;18.20;19.10;;;;;;5066118;28;20231;-55
2020/12/11 08:24:41;;;;;;;4.07;3.78;;;18.30;19.10;;;;;;5059517;28;20209;-56
2020/12/11 08:27:20;;;;;;;3.90;3.50;;;18.30;19.10;;;;;;5069461;28;20239;-56
2020/12/11 08:30:02;;;;;;;3.80;3.50;;;18.40;19.20;;;;;;5031115;28;20510;-56
2020/12/11 08:32:28;;;;;;;3.30;3.05;;;18.50;19.20;;;;;;5060008;28;20722;-56
2020/12/11 08:34:54;;;;;;;3.83;3.33;;;18.50;19.30;;;;;;5049545;28;20791;-55
2020/12/11 08:37:23;;;;;;;3.23;2.93;;;18.50;19.60;;;;;;5061167;28;20181;-55
2020/12/11 08:40:08;;;;;;;4.00;3.25;;;18.60;19.90;;;;;;5047190;28;20618;-58
2020/12/11 08:42:44;;;;;;;6.35;3.35;;;18.60;20.10;;;;;;5062615;28;20177;-56
2020/12/11 08:45:24;;;;;;;3.35;2.85;;;18.70;20.30;;;;;;5063265;28;20196;-56
2020/12/11 08:50:32;;;;;;;3.40;3.10;;;18.70;20.40;;;;;;5053780;28;20223;-56
2020/12/11 08:53:07;;;;;;;3.50;3.25;;;19.60;21.10;;;;;;5063064;28;20189;-56
2020/12/11 08:55:33;;;;;;;4.63;3.90;;;18.80;20.60;;;;;;5028036;28;20187;-57
2020/12/11 08:57:59;;;;;;;4.23;2.83;;;18.80;20.60;;;;;;5031542;28;20185;-57
2020/12/11 09:00:25;;;;;;;7.40;3.87;;;18.80;20.70;;;;;;5057071;28;20181;-59
2020/12/11 09:02:51;;;;;;;3.90;3.53;;;18.90;20.70;;;;;;5061372;28;20466;-58
2020/12/11 09:05:17;;;;;;;3.65;3.20;;;18.90;20.80;;;;;;5069499;28;20180;-57
2020/12/11 09:07:42;;;;;;;4.27;3.60;;;18.90;20.80;;;;;;5053439;28;20200;-58
2020/12/11 09:10:08;;;;;;;4.57;4.17;;;18.90;20.70;;;;;;5055693;28;20190;-56
2020/12/11 09:12:35;;;;;;;3.97;3.40;;;19.00;20.80;;;;;;5064511;28;21471;-57
2020/12/11 09:15:07;;;;;;;3.97;3.45;;;19.00;20.70;;;;;;5059854;28;21148;-55
2020/12/11 09:17:33;;;;;;;4.97;3.97;;;19.00;20.60;;;;;;5060990;28;20216;-56
2020/12/11 09:19:59;;;;;;;4.90;3.25;;;19.70;20.90;;;;;;5034890;28;20238;-56
2020/12/11 09:22:24;;;;;;;4.17;3.50;;;19.10;20.50;;;;;;5055602;28;20181;-55
2020/12/11 09:24:50;;;;;;;3.20;2.80;;;19.10;20.50;;;;;;5025100;28;20184;-54
2020/12/11 09:27:16;;;;;;;4.00;3.70;;;19.20;20.30;;;;;;5067440;28;20209;-55
2020/12/11 09:29:45;;;;;;;3.33;3.00;;;19.20;20.20;;;;;;5044163;28;20173;-55
2020/12/11 09:32:59;;;;;;;3.42;3.10;;;19.20;20.10;;;;;;5063990;28;20544;-55
2020/12/11 09:34:59;;;;;;;4.28;3.30;;;19.20;20.30;;;;;;5044228;28;20189;-56
2020/12/11 09:37:25;;;;;;;5.68;3.67;;;19.20;20.50;;;;;;5059195;28;20185;-55
2020/12/11 09:39:51;;;;;;;3.30;3.00;;;19.20;20.60;;;;;;5045423;28;20254;-55
2020/12/11 09:50:36;;;;;;;3.70;3.33;;;19.30;28.30;;;;;;5059610;28;20215;-55
2020/12/11 09:53:11;;;;;;;3.10;2.85;;;19.40;20.70;;;;;;5037749;28;20262;-55
2020/12/11 09:55:45;;;;;;;4.15;3.00;;;19.40;20.70;;;;;;5050645;28;20535;-55
2020/12/11 09:58:11;;;;;;;4.55;3.55;;;19.40;20.90;;;;;;5034141;28;20268;-55
2020/12/11 10:00:43;;;;;;;4.93;3.42;;;19.40;21.00;;;;;;5041768;28;20282;-55
2020/12/11 10:03:13;;;;;;;6.45;3.55;;;19.40;21.10;;;;;;5048337;28;20247;-56
2020/12/11 10:05:40;;;;;;;4.72;2.67;;;19.40;21.20;;;;;;5024658;28;20200;-56
2020/12/11 10:08:06;;;;;;;3.28;2.97;;;19.50;21.30;;;;;;5026848;28;22086;-57
2020/12/11 10:10:31;;;;;;;5.20;3.03;;;19.50;21.20;;;;;;5042879;28;20219;-56
2020/12/11 10:12:58;;;;;;;3.10;2.90;;;;;;;;;;5013491;28;20439;-56
2020/12/11 10:15:24;;;;;;;4.90;3.20;;;19.60;20.90;;;;;;5060071;28;20182;-56
2020/12/11 10:17:50;;;;;;;5.10;2.80;;;19.60;21.40;;;;;;5017532;28;20188;-56
2020/12/11 10:20:22;;;;;;;5.20;2.80;;;19.60;21.40;;;;;;5023654;28;20615;-56
2020/12/11 10:22:49;;;;;;;4.82;3.38;;;19.60;21.40;;;;;;5050827;28;21032;-56
2020/12/11 10:25:19;;;;;;;3.30;3.00;;;19.60;21.40;;;;;;5066344;28;20195;-55
2020/12/11 10:27:45;;;;;;;4.75;2.88;;;19.60;21.40;;;;;;5043094;28;20268;-55
2020/12/11 10:30:11;;;;;;;3.50;2.63;;;19.60;21.30;;;;;;5018110;28;20968;-56
2020/12/11 10:32:38;;;;;;;3.15;2.88;;;19.60;21.50;;;;;;5036548;28;20186;-55
2020/12/11 10:35:05;;;;;;;3.10;2.50;;;19.70;21.50;;;;;;5021644;28;20177;-55
2020/12/11 10:37:31;;;;;;;4.35;3.22;;;19.70;21.50;;;;;;5049812;28;20173;-55
2020/12/11 10:39:57;;;;;;;5.80;3.20;;;19.70;21.50;;;;;;5019220;28;20177;-62
2020/12/11 10:42:23;;;;;;;4.00;2.92;;;19.70;21.60;;;;;;5039733;28;20418;-55
2020/12/11 10:44:49;;;;;;;4.05;3.17;;;19.70;21.50;;;;;;5050422;28;20197;-55
2020/12/11 10:47:15;;;;;;;3.20;2.80;;;19.60;21.50;;;;;;5049995;28;20178;-56
2020/12/11 10:49:41;;;;;;;4.23;3.10;;;19.70;21.40;;;;;;5039851;28;20636;-57
2020/12/11 10:52:07;;;;;;;5.13;2.73;;;19.70;21.40;;;;;;5019952;28;21140;-55
2020/12/11 10:54:33;;;;;;;11.47;2.90;;;19.80;21.80;;;;;;5050693;28;20445;-56
2020/12/11 10:56:59;;;;;;;4.60;2.85;;;19.70;22.00;;;;;;5055445;28;20231;-57
2020/12/11 10:59:25;;;;;;;4.73;2.90;;;19.70;22.00;;;;;;5028116;28;20225;-57
2020/12/11 11:01:51;;;;;;;4.25;3.10;;;19.70;22.40;;;;;;5061018;28;20428;-56
2020/12/11 11:04:20;;;;;;;8.73;3.80;;;19.70;22.60;;;;;;5049230;28;20641;-55
2020/12/11 11:06:57;;;;;;;4.05;3.00;;;19.70;22.50;;;;;;5043428;28;20182;-58
2020/12/11 11:09:37;;;;;;;4.07;3.00;;;19.70;23.10;;;;;;5036032;28;20280;-55
2020/12/11 11:12:11;;;;;;;5.07;3.03;;;19.80;23.40;;;;;;5033426;28;20637;-56
2020/12/11 11:22:45;;;;;;;4.03;2.60;;;19.90;22.10;;;;;;5055762;28;20184;-54
2020/12/11 11:25:48;;;;;;;3.20;2.90;;;20.00;22.10;;;;;;5035690;28;20276;-55
2020/12/11 11:28:14;;;;;;;5.07;3.08;;;20.00;22.00;;;;;;5038206;28;20184;-55
2020/12/11 11:30:40;;;;;;;6.47;2.90;;;20.00;21.90;;;;;;5031211;28;20885;-55
2020/12/11 11:33:05;;;;;;;3.93;2.97;;;20.00;21.90;;;;;;5025728;28;20537;-55
2020/12/11 11:35:31;;;;;;;3.73;3.10;;;20.00;21.80;;;;;;5052570;28;20235;-55
2020/12/11 11:37:58;;;;;;;4.03;2.90;;;20.00;21.80;;;;;;5045030;28;20180;-54
2020/12/11 11:40:24;;;;;;;3.38;2.88;;;20.10;21.90;;;;;;5044109;28;20181;-56
2020/12/11 11:42:51;;;;;;;2.97;2.78;;;20.00;21.80;;;;;;5011679;28;20193;-56
2020/12/11 11:45:20;;;;;;;4.78;2.63;;;20.00;21.90;;;;;;5062701;28;20162;-55
2020/12/11 11:47:53;;;;;;;5.18;3.25;;;20.00;22.00;;;;;;5047499;28;20235;-54
2020/12/11 11:52:47;;;;;;;2.97;2.23;;;20.00;22.20;;;;;;5058842;28;20178;-54
2020/12/11 11:55:13;;;;;;;5.13;3.00;;;20.00;22.30;;;;;;5030471;28;20186;-55
2020/12/11 11:57:40;;;;;;;3.87;3.07;;;20.10;22.40;;;;;;5024882;28;20272;-55
2020/12/11 12:00:07;;;;;;;3.35;2.78;;;20.10;22.50;;;;;;5043517;28;20428;-54
2020/12/11 12:02:34;;;;;;;7.40;2.85;;;20.10;22.50;;;;;;5044446;28;20200;-55
2020/12/11 12:05:00;;;;;;;4.40;2.78;;;20.10;22.60;;;;;;5030536;28;20181;-55
2020/12/11 12:07:26;;;;;;;4.90;3.50;;;20.00;22.60;;;;;;5042621;28;20286;-58
2020/12/11 12:09:52;;;;;;;9.07;3.40;;;20.10;22.80;;;;;;5014312;28;20244;-57
2020/12/11 12:12:18;;;;;;;2.85;2.65;;;20.10;23.00;;;;;;5033636;28;20398;-57
2020/12/11 12:14:46;;;;;;;4.75;2.75;;;20.10;23.00;;;;;;5055611;28;20197;-56
2020/12/11 12:17:11;;;;;;;4.57;2.90;;;20.10;23.10;;;;;;5053046;28;20201;-55
2020/12/11 12:19:44;;;;;;;3.50;3.00;;;20.00;22.60;;;;;;5050034;28;20679;-55
2020/12/11 12:30:02;;;;;;;4.88;4.00;;;19.80;21.10;;;;;;5036135;28;20204;-55
2020/12/11 12:32:38;;;;;;;5.20;4.55;;;19.70;20.70;;;;;;5027261;28;20456;-55
2020/12/11 12:36:06;;;;;;;5.55;3.80;;;19.80;20.70;;;;;;5029145;28;20226;-55
2020/12/11 12:37:53;;;;;;;3.83;3.53;;;19.70;20.70;;;;;;5020071;28;20644;-56
2020/12/11 12:45:32;;;;;;;4.55;3.42;;;19.70;21.20;;;;;;5064025;28;20239;-56
2020/12/11 12:47:57;;;;;;;9.38;3.50;;;19.70;20.70;;;;;;5043686;28;20249;-55
2020/12/11 12:50:23;;;;;;;3.80;3.10;;;19.70;20.70;;;;;;5035880;28;20723;-55
2020/12/11 12:52:49;;;;;;;3.63;2.93;;;19.70;20.60;;;;;;5051252;28;20186;-55
2020/12/11 12:55:18;;;;;;;4.22;2.70;;;19.70;20.70;;;;;;5064002;28;20177;-56
2020/12/11 12:58:05;;;;;;;3.70;3.40;;;19.70;20.80;;;;;;5042665;28;20300;-55
2020/12/11 13:00:39;;;;;;;3.33;3.05;;;19.70;20.90;;;;;;5041983;28;20269;-55
2020/12/11 13:05:36;;;;;;;4.97;3.15;;;19.70;20.90;;;;;;5049468;28;20173;-55
2020/12/11 13:08:03;;;;;;;7.00;3.30;;;19.70;20.90;;;;;;5043153;28;20629;-56
2020/12/11 13:10:32;;;;;;;5.45;3.03;;;19.70;21.00;;;;;;5041547;28;20233;-56
2020/12/11 13:12:57;;;;;;;7.88;3.90;;;19.70;21.10;;;;;;5052988;28;20166;-55
2020/12/11 13:15:23;;;;;;;8.07;3.10;;;19.70;21.10;;;;;;5058263;28;20192;-55
2020/12/11 13:17:49;;;;;;;11.60;3.70;;;19.70;21.20;;;;;;5043388;28;20174;-56
2020/12/11 13:20:21;;;;;;;7.63;3.57;;;19.70;21.20;;;;;;5037639;28;20606;-54
2020/12/11 13:27:57;;;;;;;4.40;2.80;;;20.80;22.10;;;;;;5034428;28;20201;-56
2020/12/11 13:30:22;;;;;;;5.40;3.30;;;20.40;21.70;;;;;;5013457;28;20177;-55
2020/12/11 13:32:48;;;;;;;6.93;3.17;;;19.70;21.40;;;;;;5046621;28;20181;-55
2020/12/11 13:35:14;;;;;;;6.80;3.27;;;19.70;21.40;;;;;;5042292;28;20197;-55
2020/12/11 13:37:40;;;;;;;9.33;3.60;;;19.40;21.30;;;;;;5028372;28;20747;-56